Time;durP1;ratioP1;P1;durP2;ratioP2;P2;SDS_P1;SDS_P2;PMS_P1;PMS_P2;Temp;Humidity;BMP_temperature;BMP_pressure;BME280_temperature;BME280_humidity;BME280_pressure;Samples;Min_cycle;Max_cycle;Signal;HPM_P1;HPM_P2
2022/07/22 00:01:37;;;;;;;12.13;7.40;;;16.60;97.90;;;;;;5112580;27;20027;-68
2022/07/22 00:04:03;;;;;;;10.38;7.80;;;16.50;97.90;;;;;;5115137;27;20301;-68
2022/07/22 00:06:29;;;;;;;13.32;8.38;;;16.40;98.00;;;;;;5116154;27;20115;-68
2022/07/22 00:08:55;;;;;;;10.88;7.75;;;16.40;97.90;;;;;;5117678;27;20381;-68
2022/07/22 00:11:21;;;;;;;11.05;7.53;;;16.40;98.00;;;;;;5112875;27;20027;-68
2022/07/22 00:13:47;;;;;;;10.43;7.22;;;16.50;98.00;;;;;;5109383;27;20023;-68
2022/07/22 00:16:15;;;;;;;9.88;7.03;;;16.60;98.00;;;;;;5118598;27;20080;-67
2022/07/22 00:18:41;;;;;;;10.90;7.28;;;16.50;98.00;;;;;;5111702;27;20035;-68
2022/07/22 00:21:09;;;;;;;10.63;7.60;;;16.50;97.90;;;;;;5114426;27;20031;-66
2022/07/22 00:23:35;;;;;;;11.98;7.57;;;16.40;98.00;;;;;;5113364;27;20027;-66
2022/07/22 00:26:01;;;;;;;12.32;7.22;;;16.40;98.00;;;;;;5107765;27;20428;-66
2022/07/22 00:28:26;;;;;;;10.30;7.57;;;16.30;97.90;;;;;;5106500;27;20024;-66
2022/07/22 00:30:52;;;;;;;11.75;7.80;;;16.30;98.00;;;;;;5114026;27;20047;-68
2022/07/22 00:33:20;;;;;;;11.70;7.25;;;16.30;97.90;;;;;;5115567;27;20016;-66
2022/07/22 00:35:49;;;;;;;11.23;7.32;;;16.30;98.00;;;;;;5114077;27;20035;-67
2022/07/22 00:38:15;;;;;;;9.95;7.80;;;16.40;98.00;;;;;;5109665;27;20030;-68
2022/07/22 00:40:40;;;;;;;9.38;7.65;;;16.40;98.00;;;;;;5107431;27;20418;-68
2022/07/22 00:43:06;;;;;;;9.48;7.47;;;16.40;98.00;;;;;;5111204;27;20030;-68
2022/07/22 00:45:32;;;;;;;9.98;7.15;;;16.40;98.00;;;;;;5113423;28;20081;-68
2022/07/22 00:47:57;;;;;;;10.52;8.07;;;16.30;98.00;;;;;;5117912;27;20118;-68
2022/07/22 00:50:23;;;;;;;10.90;7.03;;;16.30;98.00;;;;;;5109928;28;20359;-67
2022/07/22 00:52:49;;;;;;;9.48;7.68;;;16.20;98.00;;;;;;5111487;27;20034;-68
2022/07/22 00:55:15;;;;;;;11.40;7.00;;;16.20;98.00;;;;;;5109812;28;20722;-68
2022/07/22 00:57:42;;;;;;;11.55;7.95;;;16.30;98.00;;;;;;5120710;27;20055;-68
2022/07/22 01:00:11;;;;;;;9.90;7.55;;;16.20;98.00;;;;;;5109576;28;20363;-68
2022/07/22 01:02:37;;;;;;;10.75;8.05;;;16.30;98.00;;;;;;5108139;28;20053;-68
2022/07/22 01:05:06;;;;;;;10.73;7.40;;;16.30;98.00;;;;;;5110445;28;20470;-68
2022/07/22 01:07:31;;;;;;;15.13;8.60;;;16.30;98.00;;;;;;5109973;28;20031;-68
2022/07/22 01:09:57;;;;;;;10.50;7.80;;;16.30;98.00;;;;;;5101374;28;20011;-68
2022/07/22 01:12:23;;;;;;;10.95;8.15;;;16.30;98.00;;;;;;5110055;28;20289;-68
2022/07/22 01:14:49;;;;;;;9.93;8.00;;;16.30;98.00;;;;;;5112077;28;20031;-68
2022/07/22 01:17:14;;;;;;;11.07;9.15;;;16.30;98.00;;;;;;5111595;28;20031;-68
2022/07/22 01:19:40;;;;;;;10.73;7.75;;;16.30;98.00;;;;;;5108346;28;20030;-68
2022/07/22 01:22:06;;;;;;;10.98;7.63;;;16.20;98.00;;;;;;5110975;28;20051;-68
2022/07/22 01:24:32;;;;;;;9.73;7.47;;;16.10;98.00;;;;;;5112999;28;20024;-68
2022/07/22 01:26:58;;;;;;;11.25;8.43;;;15.90;97.70;;;;;;5108459;27;20024;-68
2022/07/22 01:29:24;;;;;;;10.88;8.38;;;15.80;97.30;;;;;;5110123;28;20076;-67
2022/07/22 01:31:53;;;;;;;12.48;8.88;;;15.70;97.10;;;;;;5105170;28;20035;-68
2022/07/22 01:34:18;;;;;;;9.88;8.43;;;15.70;96.80;;;;;;5114992;28;20114;-66
2022/07/22 01:36:44;;;;;;;12.20;8.88;;;15.60;96.90;;;;;;5108191;28;20112;-68
2022/07/22 01:39:10;;;;;;;12.30;8.25;;;15.60;96.90;;;;;;5107225;28;20055;-68
2022/07/22 01:41:35;;;;;;;11.93;8.75;;;15.50;96.70;;;;;;5107894;28;21649;-67
2022/07/22 01:44:01;;;;;;;11.85;8.63;;;15.50;96.40;;;;;;5109950;28;20088;-68
2022/07/22 01:46:27;;;;;;;11.25;8.45;;;15.50;96.50;;;;;;5108941;28;20348;-68
2022/07/22 01:48:53;;;;;;;9.85;8.20;;;15.50;96.70;;;;;;5109943;28;20412;-68
2022/07/22 01:51:19;;;;;;;12.05;8.70;;;15.50;96.50;;;;;;5103120;27;20027;-67
2022/07/22 01:53:45;;;;;;;11.80;8.57;;;15.50;96.30;;;;;;5106622;27;20020;-68
2022/07/22 01:56:11;;;;;;;12.85;8.38;;;15.50;96.30;;;;;;5111527;27;20077;-67
2022/07/22 01:58:37;;;;;;;12.90;8.55;;;15.40;96.40;;;;;;5101809;27;20074;-68
2022/07/22 02:01:03;;;;;;;15.93;8.70;;;15.40;96.20;;;;;;5094774;27;20106;-68
2022/07/22 02:03:28;;;;;;;11.20;8.93;;;15.40;96.30;;;;;;5095417;27;20032;-67
2022/07/22 02:05:54;;;;;;;10.93;8.85;;;15.40;96.30;;;;;;5096572;27;20404;-68
2022/07/22 02:08:20;;;;;;;11.55;8.57;;;15.40;96.20;;;;;;5106189;27;20027;-67
2022/07/22 02:10:45;;;;;;;14.25;8.80;;;15.30;96.20;;;;;;5106366;27;20058;-67
2022/07/22 02:13:11;;;;;;;12.98;8.65;;;15.20;95.90;;;;;;5112416;27;20420;-66
2022/07/22 02:15:37;;;;;;;12.45;9.32;;;15.20;95.80;;;;;;5107464;27;20044;-66
2022/07/22 02:18:17;;;;;;;9.93;8.30;;;15.10;95.70;;;;;;5103823;27;20127;-66
2022/07/22 02:20:44;;;;;;;14.32;8.52;;;15.00;95.60;;;;;;5106445;27;20024;-66
2022/07/22 02:23:20;;;;;;;14.52;9.23;;;14.90;95.00;;;;;;5110865;27;20028;-68
2022/07/22 02:25:46;;;;;;;12.27;8.95;;;14.80;94.70;;;;;;5112084;27;20059;-68
2022/07/22 02:28:12;;;;;;;11.75;9.25;;;14.80;94.50;;;;;;5107012;27;20034;-68
2022/07/22 02:30:38;;;;;;;12.82;8.80;;;14.80;94.70;;;;;;5113915;27;20359;-68
2022/07/22 02:33:04;;;;;;;12.07;8.73;;;14.60;94.40;;;;;;5120238;27;20343;-68
2022/07/22 02:35:30;;;;;;;14.30;10.05;;;14.60;94.20;;;;;;5114827;27;20107;-68
2022/07/22 02:37:56;;;;;;;11.32;9.20;;;14.50;94.10;;;;;;5107659;27;20047;-69
2022/07/22 02:40:21;;;;;;;12.13;9.18;;;14.50;93.60;;;;;;5110905;27;20028;-66
2022/07/22 02:42:47;;;;;;;11.70;10.13;;;14.50;93.20;;;;;;5106420;27;20034;-66
2022/07/22 02:45:13;;;;;;;12.43;9.15;;;14.60;93.30;;;;;;5110363;27;20032;-67
2022/07/22 02:47:54;;;;;;;12.52;9.18;;;14.50;93.40;;;;;;5108780;28;20087;-69
2022/07/22 02:50:21;;;;;;;13.90;9.98;;;14.50;93.10;;;;;;5106220;27;20372;-66
2022/07/22 02:52:46;;;;;;;14.23;10.00;;;14.50;92.80;;;;;;5111757;27;20058;-66
2022/07/22 02:55:12;;;;;;;13.25;10.57;;;14.60;92.50;;;;;;5112873;27;20377;-68
2022/07/22 02:57:38;;;;;;;11.20;9.88;;;14.60;93.10;;;;;;5111687;28;20102;-65
2022/07/22 03:00:07;;;;;;;11.52;9.40;;;14.60;93.50;;;;;;5116447;27;20020;-67
2022/07/22 03:02:36;;;;;;;15.55;11.27;;;14.50;93.40;;;;;;5103906;27;20023;-67
2022/07/22 03:05:02;;;;;;;14.75;10.05;;;14.50;93.10;;;;;;5106929;27;20028;-68
2022/07/22 03:07:31;;;;;;;12.75;9.85;;;14.50;92.70;;;;;;5113111;27;20042;-68
2022/07/22 03:09:59;;;;;;;14.25;9.65;;;14.60;92.80;;;;;;5108136;27;20515;-68
2022/07/22 03:12:25;;;;;;;13.77;9.75;;;14.60;93.20;;;;;;5104029;27;20050;-68
2022/07/22 03:14:50;;;;;;;14.38;9.45;;;14.60;93.10;;;;;;5112817;27;20412;-68
2022/07/22 03:17:16;;;;;;;14.40;10.40;;;14.60;93.20;;;;;;5108519;27;20035;-67
2022/07/22 03:19:42;;;;;;;13.73;10.60;;;14.50;93.40;;;;;;5111098;27;20099;-69
2022/07/22 03:22:08;;;;;;;15.07;10.50;;;14.40;93.40;;;;;;5109750;27;20305;-68
2022/07/22 03:24:34;;;;;;;14.45;10.35;;;14.50;92.80;;;;;;5109310;27;20121;-67
2022/07/22 03:26:59;;;;;;;14.52;10.60;;;14.60;92.90;;;;;;5111993;27;20799;-68
2022/07/22 03:29:25;;;;;;;14.35;10.60;;;14.80;93.60;;;;;;5100058;27;20024;-69
2022/07/22 03:31:51;;;;;;;15.70;10.48;;;14.80;93.80;;;;;;5111209;27;20059;-68
2022/07/22 03:34:16;;;;;;;13.63;10.02;;;14.80;94.10;;;;;;5111889;27;20165;-68
2022/07/22 03:36:43;;;;;;;14.45;10.02;;;14.70;94.10;;;;;;5112163;28;20020;-68
2022/07/22 03:39:08;;;;;;;13.40;10.63;;;14.70;94.10;;;;;;5111990;27;20019;-68
2022/07/22 03:41:34;;;;;;;12.48;10.45;;;14.70;93.60;;;;;;5110161;27;20020;-68
2022/07/22 03:44:00;;;;;;;16.23;11.05;;;14.80;93.70;;;;;;5107522;27;20107;-68
2022/07/22 03:46:25;;;;;;;14.35;10.98;;;14.80;94.10;;;;;;5112087;27;20043;-67
2022/07/22 03:48:51;;;;;;;16.50;11.18;;;14.90;94.60;;;;;;5108660;27;20136;-68
2022/07/22 03:51:16;;;;;;;14.50;10.05;;;14.90;94.90;;;;;;5103628;27;20384;-68
2022/07/22 03:53:42;;;;;;;13.13;10.05;;;14.90;94.80;;;;;;5109556;28;20038;-67
2022/07/22 03:56:08;;;;;;;13.02;9.68;;;14.90;94.80;;;;;;5106920;27;20034;-68
2022/07/22 03:58:33;;;;;;;15.02;10.40;;;14.90;94.80;;;;;;5110407;27;20431;-68
2022/07/22 04:00:59;;;;;;;13.48;9.90;;;14.90;95.00;;;;;;5109567;28;20117;-68
2022/07/22 04:03:25;;;;;;;15.00;10.43;;;14.90;95.00;;;;;;5109744;27;20047;-68
2022/07/22 04:05:51;;;;;;;11.90;9.95;;;14.90;95.20;;;;;;5111828;27;20031;-68
2022/07/22 04:08:17;;;;;;;12.48;9.35;;;14.90;95.30;;;;;;5113168;27;20110;-68
2022/07/22 04:10:43;;;;;;;14.98;10.43;;;14.90;95.30;;;;;;5111215;27;20073;-67
2022/07/22 04:13:12;;;;;;;12.95;10.00;;;14.80;94.90;;;;;;5108796;27;20421;-68
2022/07/22 04:15:37;;;;;;;13.35;9.73;;;14.80;94.60;;;;;;5113363;28;20031;-68
2022/07/22 04:18:03;;;;;;;16.23;10.57;;;14.80;94.50;;;;;;5108695;27;20019;-68
2022/07/22 04:20:29;;;;;;;14.60;10.13;;;14.80;94.40;;;;;;5105462;27;20038;-68
2022/07/22 04:22:54;;;;;;;14.45;9.95;;;14.80;94.50;;;;;;5104780;27;20030;-69
2022/07/22 04:25:20;;;;;;;14.45;10.07;;;14.90;94.80;;;;;;5107175;27;20093;-68
2022/07/22 04:27:46;;;;;;;11.75;9.75;;;14.80;95.20;;;;;;5111072;28;20035;-68
2022/07/22 04:30:11;;;;;;;16.10;10.80;;;14.80;94.90;;;;;;5104902;28;20046;-69
2022/07/22 04:32:37;;;;;;;12.05;10.27;;;14.80;94.70;;;;;;5111411;28;20119;-69
2022/07/22 04:35:04;;;;;;;14.55;9.63;;;14.80;94.70;;;;;;5112861;28;20031;-69
2022/07/22 04:37:30;;;;;;;11.75;9.63;;;14.90;94.70;;;;;;5104649;27;20065;-68
2022/07/22 04:39:55;;;;;;;12.07;9.05;;;14.90;94.70;;;;;;5115689;27;20413;-68
2022/07/22 04:42:21;;;;;;;11.10;9.35;;;14.90;94.90;;;;;;5110096;28;20452;-68
2022/07/22 04:44:50;;;;;;;12.80;9.57;;;14.90;94.90;;;;;;5111995;28;20031;-69
2022/07/22 04:47:17;;;;;;;13.18;9.27;;;14.80;94.80;;;;;;5111775;28;20074;-68
2022/07/22 04:49:43;;;;;;;13.63;10.65;;;14.80;94.50;;;;;;5103529;28;20103;-68
2022/07/22 04:52:09;;;;;;;13.10;9.75;;;14.80;94.40;;;;;;5110994;27;20099;-68
2022/07/22 04:54:37;;;;;;;13.32;10.80;;;14.90;94.20;;;;;;5107162;28;20043;-68
2022/07/22 04:57:03;;;;;;;12.88;9.88;;;14.90;94.20;;;;;;5104342;28;20026;-68
2022/07/22 04:59:35;;;;;;;14.25;10.32;;;15.00;94.40;;;;;;5105502;28;20914;-69
2022/07/22 05:02:09;;;;;;;15.20;10.32;;;15.10;94.40;;;;;;5111129;27;20046;-69
2022/07/22 05:04:34;;;;;;;13.52;10.48;;;15.10;94.50;;;;;;5107226;28;20016;-68
2022/07/22 05:07:02;;;;;;;14.57;10.50;;;15.20;94.40;;;;;;5111144;28;20106;-67
2022/07/22 05:09:28;;;;;;;16.67;11.52;;;15.20;94.50;;;;;;5110893;28;20032;-67
2022/07/22 05:11:54;;;;;;;13.88;11.60;;;15.20;94.70;;;;;;5110828;28;20028;-67
2022/07/22 05:14:24;;;;;;;16.23;11.35;;;15.30;94.50;;;;;;5110412;28;20038;-67
2022/07/22 05:16:50;;;;;;;15.93;12.00;;;15.30;94.60;;;;;;5110537;28;20020;-67
2022/07/22 05:19:19;;;;;;;18.40;11.82;;;15.40;94.40;;;;;;5108523;28;20409;-67
2022/07/22 05:21:45;;;;;;;15.68;12.00;;;15.40;94.40;;;;;;5112460;28;20020;-68
2022/07/22 05:24:11;;;;;;;14.73;10.90;;;15.60;94.50;;;;;;5113642;27;20271;-68
2022/07/22 05:26:37;;;;;;;15.70;10.55;;;15.70;94.90;;;;;;5114826;28;20070;-68
2022/07/22 05:29:03;;;;;;;15.77;10.07;;;15.70;95.10;;;;;;5122379;27;20055;-68
2022/07/22 05:31:29;;;;;;;14.38;9.82;;;15.80;95.60;;;;;;5113068;27;20035;-68
2022/07/22 05:33:55;;;;;;;12.13;9.68;;;15.90;95.60;;;;;;5118264;27;20024;-67
2022/07/22 05:36:21;;;;;;;12.85;9.25;;;16.10;95.80;;;;;;5116717;28;20042;-68
2022/07/22 05:38:46;;;;;;;12.32;9.07;;;16.30;96.30;;;;;;5118534;28;20023;-68
2022/07/22 05:41:12;;;;;;;13.05;9.68;;;16.40;97.10;;;;;;5115896;28;20158;-68
2022/07/22 05:43:38;;;;;;;12.50;10.25;;;16.50;97.70;;;;;;5115932;27;20031;-68
2022/07/22 05:46:03;;;;;;;16.30;9.82;;;16.70;98.00;;;;;;5118764;27;20047;-68
2022/07/22 05:48:29;;;;;;;13.48;9.63;;;16.90;98.00;;;;;;5117975;27;20111;-68
2022/07/22 05:50:55;;;;;;;14.52;9.73;;;17.00;98.00;;;;;;5117155;28;20031;-68
2022/07/22 05:53:23;;;;;;;13.80;10.20;;;17.20;98.00;;;;;;5116947;27;20030;-68
2022/07/22 05:55:52;;;;;;;12.38;10.00;;;17.40;98.00;;;;;;5114830;28;20110;-68
2022/07/22 05:58:18;;;;;;;12.68;10.05;;;17.50;98.00;;;;;;5109795;28;20015;-68
2022/07/22 06:00:43;;;;;;;13.75;10.45;;;17.70;98.00;;;;;;5116696;28;20417;-67
2022/07/22 06:03:09;;;;;;;14.57;10.80;;;17.80;98.00;;;;;;5114732;28;20024;-69
2022/07/22 06:05:38;;;;;;;13.63;10.15;;;18.00;98.00;;;;;;5116932;28;20027;-68
2022/07/22 06:08:04;;;;;;;14.57;9.80;;;18.10;98.00;;;;;;5117975;27;20034;-69
2022/07/22 06:10:30;;;;;;;12.50;9.52;;;18.20;98.00;;;;;;5118073;27;20023;-68
2022/07/22 06:12:56;;;;;;;14.88;9.00;;;18.20;97.90;;;;;;5117482;27;20042;-68
2022/07/22 06:15:21;;;;;;;12.25;9.95;;;18.30;97.60;;;;;;5112860;28;20031;-68
2022/07/22 06:17:47;;;;;;;14.68;9.43;;;18.40;97.70;;;;;;5115511;27;20313;-69
2022/07/22 06:20:13;;;;;;;16.00;9.15;;;18.50;97.60;;;;;;5117004;28;20019;-69
2022/07/22 06:22:41;;;;;;;11.50;9.23;;;18.60;97.30;;;;;;5118011;27;20027;-68
2022/07/22 06:25:08;;;;;;;15.27;9.00;;;18.70;97.20;;;;;;5115769;28;20070;-69
2022/07/22 06:27:34;;;;;;;13.80;9.68;;;18.80;96.80;;;;;;5115113;27;20086;-68
2022/07/22 06:30:00;;;;;;;13.02;9.30;;;18.90;96.50;;;;;;5118323;28;20317;-69
2022/07/22 06:32:25;;;;;;;11.48;8.82;;;19.00;96.60;;;;;;5116770;28;20030;-68
2022/07/22 06:34:51;;;;;;;13.35;8.73;;;19.10;96.40;;;;;;5118506;27;20032;-68
2022/07/22 06:37:16;;;;;;;14.93;8.93;;;19.20;96.10;;;;;;5115867;28;20031;-68
2022/07/22 06:39:42;;;;;;;11.32;8.35;;;19.20;95.80;;;;;;5116518;27;20779;-68
2022/07/22 06:42:08;;;;;;;11.93;9.07;;;19.30;95.70;;;;;;5116339;28;20027;-68
2022/07/22 06:44:33;;;;;;;11.15;8.80;;;19.50;95.60;;;;;;5117018;27;20123;-68
2022/07/22 06:46:59;;;;;;;12.80;8.65;;;19.60;95.40;;;;;;5112539;28;20066;-69
2022/07/22 06:49:25;;;;;;;10.48;8.93;;;19.60;95.50;;;;;;5113618;27;20097;-68
2022/07/22 06:51:50;;;;;;;14.32;9.48;;;19.80;95.00;;;;;;5115866;28;20034;-68
2022/07/22 06:54:16;;;;;;;13.75;9.90;;;19.90;94.90;;;;;;5115587;28;20031;-68
2022/07/22 06:56:41;;;;;;;13.02;8.25;;;20.20;94.60;;;;;;5114279;27;20035;-69
2022/07/22 06:59:07;;;;;;;11.98;8.60;;;20.90;93.00;;;;;;5117979;27;20027;-69
2022/07/22 07:01:35;;;;;;;11.25;8.43;;;21.50;91.10;;;;;;5116485;27;20328;-68
2022/07/22 07:04:02;;;;;;;12.50;8.98;;;21.50;90.50;;;;;;5115678;28;20024;-68
2022/07/22 07:06:27;;;;;;;13.48;8.77;;;21.30;91.00;;;;;;5113694;27;20065;-68
2022/07/22 07:08:53;;;;;;;12.55;8.80;;;21.10;91.60;;;;;;5114191;28;20413;-69
2022/07/22 07:11:19;;;;;;;11.00;8.27;;;21.00;92.40;;;;;;5115951;28;20042;-68
2022/07/22 07:13:47;;;;;;;12.20;8.52;;;20.90;92.50;;;;;;5120872;27;20025;-68
2022/07/22 07:16:13;;;;;;;14.73;8.82;;;20.80;92.60;;;;;;5117083;28;20105;-68
2022/07/22 07:18:38;;;;;;;14.48;8.50;;;20.80;93.00;;;;;;5113005;28;20031;-68
2022/07/22 07:21:04;;;;;;;10.93;8.65;;;20.80;93.20;;;;;;5115091;28;20028;-68
2022/07/22 07:23:33;;;;;;;13.75;8.75;;;20.90;92.90;;;;;;5111373;27;20039;-69
2022/07/22 07:25:59;;;;;;;13.73;8.52;;;21.10;92.70;;;;;;5114574;27;20032;-68
2022/07/22 07:28:25;;;;;;;10.05;8.10;;;21.20;92.60;;;;;;5114594;28;20031;-69
2022/07/22 07:30:53;;;;;;;14.02;8.82;;;21.30;92.10;;;;;;5114922;27;20027;-67
2022/07/22 07:33:19;;;;;;;12.55;8.18;;;21.40;92.20;;;;;;5114288;27;20024;-69
2022/07/22 07:35:45;;;;;;;12.30;7.85;;;21.60;92.30;;;;;;5115760;28;20027;-69
2022/07/22 07:38:11;;;;;;;10.55;8.00;;;22.00;91.00;;;;;;5113562;27;20027;-68
2022/07/22 07:40:37;;;;;;;11.73;7.47;;;22.80;88.70;;;;;;5114612;28;20169;-69
2022/07/22 07:43:02;;;;;;;9.15;6.93;;;23.90;86.20;;;;;;5117608;27;20335;-69
2022/07/22 07:45:29;;;;;;;12.13;6.80;;;24.70;83.30;;;;;;5113392;28;20024;-68
2022/07/22 07:47:54;;;;;;;10.65;7.18;;;25.50;81.40;;;;;;5115710;27;20055;-68
2022/07/22 07:50:20;;;;;;;8.88;6.40;;;26.10;79.40;;;;;;5116442;28;20019;-69
2022/07/22 07:52:48;;;;;;;8.98;6.32;;;26.60;78.30;;;;;;5115036;27;20031;-69
2022/07/22 07:55:14;;;;;;;8.35;6.05;;;27.00;77.20;;;;;;5113031;27;20407;-69
2022/07/22 07:57:40;;;;;;;10.15;5.75;;;27.20;76.30;;;;;;5114415;28;20031;-69
2022/07/22 08:00:11;;;;;;;10.43;6.20;;;27.60;75.20;;;;;;5115167;28;20027;-68
2022/07/22 08:02:37;;;;;;;8.88;6.30;;;28.50;73.30;;;;;;5115370;27;20023;-68
2022/07/22 08:05:04;;;;;;;9.40;6.07;;;28.60;72.40;;;;;;5114952;27;20030;-68
2022/07/22 08:07:29;;;;;;;8.13;6.25;;;28.50;73.10;;;;;;5115949;28;20027;-68
2022/07/22 08:09:55;;;;;;;9.23;6.15;;;27.90;73.60;;;;;;5115923;27;20489;-68
2022/07/22 08:12:21;;;;;;;9.63;6.78;;;28.10;73.80;;;;;;5124253;27;20035;-67
2022/07/22 08:14:46;;;;;;;9.52;6.28;;;28.50;73.30;;;;;;5114753;27;20027;-68
2022/07/22 08:17:12;;;;;;;7.80;5.55;;;29.00;71.90;;;;;;5128264;27;20019;-68
2022/07/22 08:19:38;;;;;;;10.20;6.63;;;29.40;71.00;;;;;;5121666;27;20039;-68
2022/07/22 08:22:04;;;;;;;13.32;6.88;;;29.60;70.60;;;;;;5116228;28;20059;-67
2022/07/22 08:24:29;;;;;;;7.50;5.88;;;29.50;70.30;;;;;;5112493;27;20016;-68
2022/07/22 08:26:55;;;;;;;10.57;5.95;;;29.50;70.30;;;;;;5113934;27;20028;-67
2022/07/22 08:29:23;;;;;;;10.63;5.95;;;29.60;69.00;;;;;;5116376;27;20031;-68
2022/07/22 08:31:49;;;;;;;8.48;5.60;;;29.90;69.80;;;;;;5114509;28;20035;-68
2022/07/22 08:34:15;;;;;;;9.60;6.60;;;30.00;69.80;;;;;;5124245;27;20439;-68
2022/07/22 08:36:40;;;;;;;9.50;6.25;;;30.20;69.10;;;;;;5112010;28;20039;-68
2022/07/22 08:39:06;;;;;;;11.40;6.97;;;29.60;70.30;;;;;;5115103;28;20031;-68
2022/07/22 08:41:37;;;;;;;13.43;7.18;;;29.30;70.50;;;;;;5111700;27;20020;-67
2022/07/22 08:44:04;;;;;;;9.60;6.35;;;29.10;71.60;;;;;;5112531;28;20129;-67
2022/07/22 08:46:30;;;;;;;9.77;6.63;;;29.70;70.40;;;;;;5110919;28;20419;-68
2022/07/22 08:48:56;;;;;;;10.00;5.90;;;30.20;69.00;;;;;;5114454;28;20106;-68
2022/07/22 08:51:22;;;;;;;10.55;6.53;;;30.80;67.70;;;;;;5116978;27;20023;-68
2022/07/22 08:53:49;;;;;;;8.43;6.65;;;31.40;66.00;;;;;;5119035;27;20112;-68
2022/07/22 08:56:14;;;;;;;13.43;6.05;;;30.70;66.80;;;;;;5112795;27;20027;-69
2022/07/22 08:58:41;;;;;;;10.45;6.57;;;30.30;68.20;;;;;;5111852;28;20367;-68
2022/07/22 09:01:12;;;;;;;10.23;5.82;;;30.30;68.90;;;;;;5116384;28;20050;-68
2022/07/22 09:03:57;;;;;;;10.60;6.60;;;30.60;67.80;;;;;;5115259;28;20028;-67
2022/07/22 09:06:26;;;;;;;12.13;6.68;;;30.60;67.10;;;;;;5111860;28;20027;-68
2022/07/22 09:09:04;;;;;;;10.77;6.93;;;30.80;66.30;;;;;;5114788;28;20028;-67
2022/07/22 09:11:31;;;;;;;8.93;6.60;;;31.00;66.20;;;;;;5113279;28;20115;-68
2022/07/22 09:13:59;;;;;;;8.95;5.90;;;30.50;67.10;;;;;;5115493;28;20028;-68
2022/07/22 09:16:42;;;;;;;8.80;6.30;;;31.20;65.90;;;;;;5115417;28;20030;-67
2022/07/22 09:19:09;;;;;;;8.60;5.83;;;31.50;65.20;;;;;;5095973;28;20103;-67
2022/07/22 09:21:37;;;;;;;13.40;6.65;;;31.20;66.60;;;;;;5110406;28;20085;-68
2022/07/22 09:24:04;;;;;;;7.88;5.95;;;31.60;65.00;;;;;;5117551;28;20026;-66
2022/07/22 09:26:32;;;;;;;8.07;6.22;;;32.00;64.80;;;;;;5111096;28;20069;-67
2022/07/22 09:28:59;;;;;;;10.00;6.50;;;32.00;64.60;;;;;;5102601;28;20027;-67
2022/07/22 09:31:36;;;;;;;9.27;6.32;;;31.70;64.90;;;;;;5113743;28;20123;-68
2022/07/22 09:34:05;;;;;;;9.73;6.10;;;32.00;64.00;;;;;;5109927;28;20031;-69
2022/07/22 09:36:31;;;;;;;10.02;6.45;;;31.40;65.30;;;;;;5113290;28;20028;-68
2022/07/22 09:39:00;;;;;;;7.47;5.78;;;31.40;66.10;;;;;;5124856;28;20046;-68
2022/07/22 09:41:26;;;;;;;9.70;5.80;;;31.70;66.30;;;;;;5123404;28;20400;-68
2022/07/22 09:43:51;;;;;;;9.52;6.13;;;32.50;64.20;;;;;;5112756;28;20020;-68
2022/07/22 09:46:39;;;;;;;10.57;6.90;;;32.90;63.40;;;;;;5115817;28;20036;-68
2022/07/22 09:49:04;;;;;;;10.60;6.25;;;32.10;63.10;;;;;;5116667;28;20023;-67
2022/07/22 09:51:30;;;;;;;8.68;6.28;;;31.60;65.70;;;;;;5114285;28;20374;-66
2022/07/22 09:53:57;;;;;;;9.98;6.32;;;32.00;64.30;;;;;;5106815;28;20109;-67
2022/07/22 09:56:23;;;;;;;9.32;6.78;;;32.90;62.80;;;;;;5112826;28;20027;-66
2022/07/22 09:58:49;;;;;;;11.13;7.13;;;33.30;61.90;;;;;;5112881;28;20020;-66
2022/07/22 10:01:16;;;;;;;9.45;6.03;;;33.00;62.40;;;;;;5109125;28;20022;-68
2022/07/22 10:03:43;;;;;;;7.60;4.95;;;33.00;63.00;;;;;;5115588;28;20023;-69
2022/07/22 10:06:11;;;;;;;9.48;5.05;;;33.20;59.50;;;;;;5114585;28;20035;-69
2022/07/22 10:08:38;;;;;;;7.97;5.05;;;33.40;56.40;;;;;;5114131;28;20124;-69
2022/07/22 10:11:06;;;;;;;7.80;5.63;;;33.90;56.00;;;;;;5114541;28;20354;-68
2022/07/22 10:13:34;;;;;;;7.72;4.72;;;34.50;58.10;;;;;;5115263;27;20027;-69
2022/07/22 10:16:00;;;;;;;7.55;4.60;;;34.60;53.70;;;;;;5115756;28;20108;-68
2022/07/22 10:18:29;;;;;;;7.78;4.80;;;34.40;54.30;;;;;;5118252;27;20039;-69
2022/07/22 10:21:09;;;;;;;6.90;4.55;;;34.60;53.60;;;;;;5117412;28;20020;-68
2022/07/22 10:23:35;;;;;;;9.45;6.38;;;33.90;57.10;;;;;;5116347;27;20073;-69
2022/07/22 10:26:03;;;;;;;10.27;6.40;;;33.60;60.30;;;;;;5117783;27;20032;-68
2022/07/22 10:28:36;;;;;;;9.50;6.75;;;33.30;62.30;;;;;;5114148;27;20134;-69
2022/07/22 10:31:28;;;;;;;8.25;6.15;;;33.10;61.10;;;;;;5111981;28;20040;-68
2022/07/22 10:33:56;;;;;;;8.88;6.18;;;32.60;61.30;;;;;;5112003;28;20047;-69
2022/07/22 10:36:35;;;;;;;9.55;6.28;;;32.70;60.90;;;;;;5113921;28;20416;-69
2022/07/22 10:39:12;;;;;;;9.90;5.63;;;32.30;63.30;;;;;;5115333;27;20099;-68
2022/07/22 10:41:42;;;;;;;8.20;4.70;;;32.80;59.30;;;;;;5113806;28;20023;-69
2022/07/22 10:44:10;;;;;;;5.93;4.10;;;33.40;56.50;;;;;;5109248;28;20358;-68
2022/07/22 10:46:54;;;;;;;6.85;4.70;;;34.30;53.70;;;;;;5114912;27;20039;-69
2022/07/22 10:49:23;;;;;;;8.13;4.97;;;33.90;52.60;;;;;;5114602;28;20635;-69
2022/07/22 10:52:07;;;;;;;7.40;4.68;;;33.40;53.80;;;;;;5113677;27;20045;-68
2022/07/22 10:54:33;;;;;;;7.82;5.05;;;33.50;52.80;;;;;;5115237;27;20180;-69
2022/07/22 10:57:02;;;;;;;5.82;3.92;;;33.70;52.80;;;;;;5113835;27;20487;-69
2022/07/22 10:59:29;;;;;;;8.20;4.15;;;33.80;52.90;;;;;;5114644;27;20023;-69
2022/07/22 11:01:57;;;;;;;8.73;4.20;;;34.10;53.50;;;;;;5115542;27;20169;-69
2022/07/22 11:04:26;;;;;;;8.15;4.70;;;33.90;54.00;;;;;;5121065;27;20022;-69
2022/07/22 11:06:54;;;;;;;7.45;4.63;;;34.00;53.70;;;;;;5112450;28;20026;-69
2022/07/22 11:09:23;;;;;;;7.30;4.65;;;33.80;53.20;;;;;;5116381;27;20424;-69
2022/07/22 11:11:51;;;;;;;8.30;5.00;;;33.90;56.40;;;;;;5115766;28;20392;-69
2022/07/22 11:14:25;;;;;;;6.95;4.50;;;34.20;53.10;;;;;;5117807;27;20030;-70
2022/07/22 11:16:52;;;;;;;6.30;4.47;;;34.10;53.90;;;;;;5112081;27;20036;-68
2022/07/22 11:19:26;;;;;;;7.30;4.55;;;34.10;54.50;;;;;;5113239;27;20042;-68
2022/07/22 11:21:54;;;;;;;7.30;4.82;;;34.30;53.50;;;;;;5113236;28;20126;-70
2022/07/22 11:24:23;;;;;;;7.20;4.32;;;34.50;53.00;;;;;;5116305;28;20039;-68
2022/07/22 11:26:51;;;;;;;6.93;4.35;;;34.40;53.40;;;;;;5116328;28;20031;-68
2022/07/22 11:29:25;;;;;;;6.85;4.05;;;34.60;53.10;;;;;;5117076;27;20023;-67
2022/07/22 11:31:51;;;;;;;7.05;4.43;;;34.60;53.80;;;;;;5115381;28;20032;-68
2022/07/22 11:34:17;;;;;;;8.95;5.18;;;34.60;51.40;;;;;;5117570;28;20031;-69
2022/07/22 11:36:45;;;;;;;10.32;4.70;;;34.20;51.80;;;;;;5113886;27;20402;-67
2022/07/22 11:39:13;;;;;;;7.20;3.90;;;33.90;52.20;;;;;;5114878;27;20451;-67
2022/07/22 11:41:40;;;;;;;10.55;7.13;;;33.60;52.80;;;;;;5113269;28;20043;-68
2022/07/22 11:44:06;;;;;;;7.22;4.15;;;34.10;53.40;;;;;;5118505;27;20073;-68
2022/07/22 11:46:36;;;;;;;7.38;4.95;;;34.40;51.20;;;;;;5116199;28;20466;-69
2022/07/22 11:49:02;;;;;;;6.53;4.30;;;34.30;51.90;;;;;;5113946;27;20370;-69
2022/07/22 11:51:30;;;;;;;7.00;4.75;;;34.40;52.70;;;;;;5116925;28;20027;-68
2022/07/22 11:53:57;;;;;;;9.68;6.38;;;33.90;54.00;;;;;;5114696;28;20118;-69
2022/07/22 11:56:24;;;;;;;7.63;5.10;;;33.60;58.10;;;;;;5116177;28;20301;-69
2022/07/22 11:58:55;;;;;;;7.35;4.53;;;33.60;55.90;;;;;;5117283;27;20047;-68
2022/07/22 12:01:22;;;;;;;7.18;4.47;;;33.80;53.50;;;;;;5115430;27;20042;-69
2022/07/22 12:03:51;;;;;;;8.40;6.28;;;33.90;53.50;;;;;;5115771;28;20015;-69
2022/07/22 12:06:19;;;;;;;6.60;4.50;;;33.90;54.40;;;;;;5116343;27;20055;-68
2022/07/22 12:08:51;;;;;;;10.25;6.50;;;34.50;52.80;;;;;;5121742;27;20051;-69
2022/07/22 12:11:18;;;;;;;9.97;6.17;;;34.00;56.60;;;;;;5124219;27;20023;-68
2022/07/22 12:13:46;;;;;;;8.52;6.22;;;32.90;58.60;;;;;;5115570;28;20023;-68
2022/07/22 12:16:24;;;;;;;9.50;6.43;;;32.20;61.40;;;;;;5116908;28;20024;-68
2022/07/22 12:19:05;;;;;;;10.75;6.60;;;32.10;61.30;;;;;;5115075;28;20016;-68
2022/07/22 12:21:34;;;;;;;8.57;6.53;;;32.00;61.60;;;;;;5116429;28;20417;-68
2022/07/22 12:24:07;;;;;;;9.75;6.60;;;32.10;60.70;;;;;;5116134;28;20024;-68
2022/07/22 12:26:37;;;;;;;;;;;31.60;62.10;;;;;;5116101;28;20416;-68
2022/07/22 12:29:21;;;;;;;9.65;6.22;;;31.80;62.20;;;;;;5115864;28;19930;-68
2022/07/22 12:31:56;;;;;;;8.02;5.80;;;32.00;61.30;;;;;;5107164;28;20485;-68
2022/07/22 12:34:39;;;;;;;8.85;5.40;;;32.20;59.70;;;;;;5115833;28;20039;-69
2022/07/22 12:37:21;;;;;;;8.02;5.47;;;32.40;59.00;;;;;;5118327;27;20079;-68
2022/07/22 12:40:04;;;;;;;7.68;5.65;;;32.10;59.80;;;;;;5131118;27;20054;-69